Seattle, Washington
Traffic Map
Current Weather Conditions
Seattle, Washington
Overcast
Overcast
44°
Feels Like: 39°
Wind Chill: 39° Ceiling: 3000
Heat Index: 44° Visibility: 10mi
Dew Point: 32° Wind: 10mph
Humidity: 63% Direction: 300° (WNW)
Pressure: 30.12in Gusts: 0mph
Raw Report DataKBFI 241953Z 30009KT 10SM BKN030 OVC070 07/00 A3012 RMK AO2 SLP199 T00670000
Traffic Incident Summary
Active as of:
Severity:
Category:
InformationThere was an issue retrieving the traffic information for this location. Please try a different location or try again shortly.
Advertisements